createdAt,value
2017-12-23T00:52:55.030Z,1038.27
2017-12-23T00:53:54.781Z,1038.29
2017-12-23T00:54:55.059Z,1038.29
2017-12-23T00:55:54.784Z,1038.27
2017-12-23T00:56:55.035Z,1038.3
2017-12-23T00:57:54.783Z,1038.31
2017-12-23T00:58:55.006Z,1038.26
2017-12-23T00:59:55.069Z,1038.21
2017-12-23T01:00:54.965Z,1038.22
2017-12-23T01:01:54.757Z,1038.18
2017-12-23T01:02:54.588Z,1038.15
2017-12-23T01:03:54.770Z,1038.19
2017-12-23T01:04:54.595Z,1038.19
2017-12-23T01:05:55.058Z,1038.22
2017-12-23T01:06:55.230Z,1038.23
2017-12-23T01:07:54.820Z,1038.2
2017-12-23T01:08:55.063Z,1038.21
2017-12-23T01:09:54.844Z,1038.21
2017-12-23T01:10:55.154Z,1038.21
2017-12-23T01:11:55.024Z,1038.2
2017-12-23T01:12:55.208Z,1038.17
2017-12-23T01:13:55.184Z,1038.16
2017-12-23T01:14:54.799Z,1038.16
2017-12-23T01:15:55.350Z,1038.17
2017-12-23T01:16:55.028Z,1038.17
2017-12-23T01:17:55.088Z,1038.15
2017-12-23T01:18:55.188Z,1038.14
2017-12-23T01:19:55.601Z,1038.15
2017-12-23T01:20:55.049Z,1038.13
2017-12-23T01:21:55.036Z,1038.13
2017-12-23T01:22:55.069Z,1038.08
2017-12-23T01:23:55.237Z,1038.07
2017-12-23T01:24:54.790Z,1038.05
2017-12-23T01:25:55.077Z,1038.04
2017-12-23T01:26:54.822Z,1038.03
2017-12-23T01:27:55.016Z,1038.03
2017-12-23T01:28:55.069Z,1038.07
2017-12-23T01:29:54.833Z,1038.05
2017-12-23T01:30:55.037Z,1038.03
2017-12-23T01:31:54.799Z,1038.03
2017-12-23T01:32:54.630Z,1038.01
2017-12-23T01:33:54.600Z,1038.02
2017-12-23T01:34:54.974Z,1038
2017-12-23T01:35:54.840Z,1038.01
2017-12-23T01:36:54.870Z,1038.02
2017-12-23T01:37:54.857Z,1037.98
2017-12-23T01:38:55.180Z,1038.02
2017-12-23T01:39:54.818Z,1038.03
2017-12-23T01:40:54.604Z,1038.07
2017-12-23T01:41:54.799Z,1038.04
2017-12-23T01:42:54.810Z,1038.1
2017-12-23T01:43:54.808Z,1038.12
2017-12-23T01:44:54.605Z,1038.1
2017-12-23T01:45:54.836Z,1038.12
2017-12-23T01:46:54.831Z,1038.09
2017-12-23T01:47:54.634Z,1038.09
2017-12-23T01:48:54.626Z,1038.05
2017-12-23T01:49:55.212Z,1038.05
2017-12-23T01:50:54.984Z,1038.09
2017-12-23T01:51:55.148Z,1038.05
2017-12-23T01:52:55.011Z,1038.06
2017-12-23T01:53:54.947Z,1038.05
2017-12-23T01:54:54.990Z,1038.07
2017-12-23T01:55:55.360Z,1038.08
2017-12-23T01:56:55.026Z,1038.15
2017-12-23T01:57:55.030Z,1038.14
2017-12-23T01:58:55.289Z,1038.16
2017-12-23T01:59:54.804Z,1038.19
2017-12-23T02:00:54.801Z,1038.17
2017-12-23T02:01:54.828Z,1038.14
2017-12-23T02:02:55.039Z,1038.1
2017-12-23T02:03:54.891Z,1038.05
2017-12-23T02:04:54.975Z,1038.06
2017-12-23T02:05:54.627Z,1038.05
2017-12-23T02:06:55.227Z,1038.06
2017-12-23T02:07:54.975Z,1038.09
2017-12-23T02:08:55.095Z,1038.03
2017-12-23T02:09:55.237Z,1038.03
2017-12-23T02:10:55.045Z,1038.03
2017-12-23T02:11:54.974Z,1037.98
2017-12-23T02:12:54.791Z,1038.02
2017-12-23T02:13:54.812Z,1037.97
2017-12-23T02:14:54.823Z,1037.98
2017-12-23T02:15:55.049Z,1037.95
2017-12-23T02:16:54.640Z,1038.01
2017-12-23T02:17:55.023Z,1038.02
2017-12-23T02:18:54.621Z,1038
2017-12-23T02:19:54.843Z,1038.01
2017-12-23T02:20:55.054Z,1037.96
2017-12-23T02:21:55.041Z,1037.98
2017-12-23T02:22:54.658Z,1037.96
2017-12-23T02:23:54.649Z,1037.91
2017-12-23T02:24:55.081Z,1037.96
2017-12-23T02:25:54.871Z,1037.92
2017-12-23T02:26:55.245Z,1037.87
2017-12-23T02:27:54.812Z,1037.86
2017-12-23T02:28:54.877Z,1037.83
2017-12-23T02:29:54.618Z,1037.86
2017-12-23T02:30:55.050Z,1037.86
2017-12-23T02:31:55.083Z,1037.89
2017-12-23T02:32:54.794Z,1037.88
2017-12-23T02:33:55.329Z,1037.84
2017-12-23T02:34:55.295Z,1037.86
2017-12-23T02:35:54.874Z,1037.93
2017-12-23T02:36:55.077Z,1037.84
2017-12-23T02:37:55.082Z,1037.86
2017-12-23T02:38:55.596Z,1037.86
2017-12-23T02:39:55.034Z,1037.81
2017-12-23T02:40:55.026Z,1037.81
2017-12-23T02:41:54.896Z,1037.78
2017-12-23T02:42:54.864Z,1037.75
2017-12-23T02:43:55.110Z,1037.75
2017-12-23T02:44:55.061Z,1037.7
2017-12-23T02:45:55.016Z,1037.7
2017-12-23T02:46:55.251Z,1037.7
2017-12-23T02:47:55.229Z,1037.69
2017-12-23T02:48:55.255Z,1037.68
2017-12-23T02:49:55.262Z,1037.65
2017-12-23T02:50:55.067Z,1037.68
2017-12-23T02:51:55.268Z,1037.7
2017-12-23T02:52:55.216Z,1037.75
2017-12-23T02:53:54.893Z,1037.74
2017-12-23T02:54:54.904Z,1037.79
2017-12-23T02:55:55.114Z,1037.84
2017-12-23T02:56:55.037Z,1037.84
2017-12-23T02:57:55.263Z,1037.84
2017-12-23T02:58:55.046Z,1037.84
2017-12-23T02:59:54.654Z,1037.83
2017-12-23T03:00:55.054Z,1037.85
2017-12-23T03:01:54.862Z,1037.86
2017-12-23T03:02:54.850Z,1037.83
2017-12-23T03:03:54.820Z,1037.87
2017-12-23T03:04:54.668Z,1037.82
2017-12-23T03:05:54.638Z,1037.81
2017-12-23T03:06:54.866Z,1037.79
2017-12-23T03:07:55.019Z,1037.81
2017-12-23T03:08:54.855Z,1037.79
2017-12-23T03:09:55.066Z,1037.76
2017-12-23T03:10:55.287Z,1037.75
2017-12-23T03:11:54.671Z,1037.76
2017-12-23T03:12:55.064Z,1037.72
2017-12-23T03:13:55.080Z,1037.75
2017-12-23T03:14:54.926Z,1037.73
2017-12-23T03:15:54.837Z,1037.76
2017-12-23T03:16:54.875Z,1037.75
2017-12-23T03:17:55.068Z,1037.76
2017-12-23T03:18:54.908Z,1037.78
2017-12-23T03:19:54.898Z,1037.82
2017-12-23T03:20:55.074Z,1037.79
2017-12-23T03:21:55.035Z,1037.77
2017-12-23T03:22:55.090Z,1037.76
2017-12-23T03:23:55.082Z,1037.8
2017-12-23T03:24:55.150Z,1037.82
2017-12-23T03:25:55.252Z,1037.78
2017-12-23T03:26:55.191Z,1037.83
2017-12-23T03:27:54.890Z,1037.84
2017-12-23T03:28:55.203Z,1037.82
2017-12-23T03:29:55.123Z,1037.83
2017-12-23T03:30:55.063Z,1037.78
2017-12-23T03:31:55.067Z,1037.82
2017-12-23T03:32:55.139Z,1037.81
2017-12-23T03:33:55.086Z,1037.77
2017-12-23T03:34:54.946Z,1037.76
2017-12-23T03:35:54.832Z,1037.74
2017-12-23T03:36:54.889Z,1037.73
2017-12-23T03:37:54.886Z,1037.73
2017-12-23T03:38:54.871Z,1037.74
2017-12-23T03:39:54.921Z,1037.75
2017-12-23T03:40:54.825Z,1037.76
2017-12-23T03:41:55.097Z,1037.76
2017-12-23T03:42:54.821Z,1037.71
2017-12-23T03:43:54.860Z,1037.75
2017-12-23T03:44:54.862Z,1037.72
2017-12-23T03:45:55.053Z,1037.71
2017-12-23T03:46:54.690Z,1037.7
2017-12-23T03:47:54.871Z,1037.73
2017-12-23T03:48:55.040Z,1037.71
2017-12-23T03:49:55.103Z,1037.67
2017-12-23T03:50:54.871Z,1037.7
2017-12-23T03:51:55.064Z,1037.67
2017-12-23T03:52:55.090Z,1037.65
2017-12-23T03:53:54.688Z,1037.69
2017-12-23T03:54:54.664Z,1037.6
2017-12-23T03:55:54.896Z,1037.62
2017-12-23T03:56:54.682Z,1037.62
2017-12-23T03:57:55.318Z,1037.64
2017-12-23T03:58:54.838Z,1037.63
2017-12-23T03:59:54.898Z,1037.64
2017-12-23T04:00:55.230Z,1037.62
2017-12-23T04:01:55.210Z,1037.6
2017-12-23T04:02:54.862Z,1037.61
2017-12-23T04:03:54.683Z,1037.62
2017-12-23T04:04:54.870Z,1037.59
2017-12-23T04:05:55.116Z,1037.58
2017-12-23T04:06:55.037Z,1037.58
2017-12-23T04:07:55.287Z,1037.59
2017-12-23T04:08:55.101Z,1037.58
2017-12-23T04:09:55.240Z,1037.59
2017-12-23T04:10:55.111Z,1037.58
2017-12-23T04:11:54.876Z,1037.56
2017-12-23T04:12:54.711Z,1037.56
2017-12-23T04:13:54.862Z,1037.52
2017-12-23T04:14:54.658Z,1037.48
2017-12-23T04:15:54.698Z,1037.48
2017-12-23T04:16:54.840Z,1037.44
2017-12-23T04:17:54.704Z,1037.47
2017-12-23T04:18:54.686Z,1037.46
2017-12-23T04:19:55.115Z,1037.42
2017-12-23T04:20:55.029Z,1037.38
2017-12-23T04:21:55.130Z,1037.37
2017-12-23T04:22:54.880Z,1037.32
2017-12-23T04:23:55.049Z,1037.35
2017-12-23T04:24:54.617Z,1037.4
2017-12-23T04:25:55.106Z,1037.41
2017-12-23T04:26:54.884Z,1037.33
2017-12-23T04:27:54.852Z,1037.33
2017-12-23T04:28:55.045Z,1037.33
2017-12-23T04:29:54.670Z,1037.38
2017-12-23T04:30:54.660Z,1037.38
2017-12-23T04:31:54.906Z,1037.38
2017-12-23T04:32:55.102Z,1037.37
2017-12-23T04:33:55.041Z,1037.35
2017-12-23T04:34:55.273Z,1037.34
2017-12-23T04:35:55.270Z,1037.35
2017-12-23T04:36:55.100Z,1037.32
2017-12-23T04:37:55.100Z,1037.33
2017-12-23T04:38:55.083Z,1037.34
2017-12-23T04:39:54.929Z,1037.31
2017-12-23T04:40:54.687Z,1037.31
2017-12-23T04:41:55.075Z,1037.31
2017-12-23T04:42:54.687Z,1037.29
2017-12-23T04:43:54.718Z,1037.35
2017-12-23T04:44:55.311Z,1037.27
2017-12-23T04:45:55.280Z,1037.29
2017-12-23T04:46:54.860Z,1037.3
2017-12-23T04:47:54.860Z,1037.31
2017-12-23T04:48:54.673Z,1037.34
2017-12-23T04:49:54.855Z,1037.33
2017-12-23T04:50:54.884Z,1037.34
2017-12-23T04:51:55.274Z,1037.35
2017-12-23T04:52:54.902Z,1037.32
2017-12-23T04:53:55.103Z,1037.35
2017-12-23T04:54:55.072Z,1037.37
2017-12-23T04:55:54.831Z,1037.4
2017-12-23T04:56:54.877Z,1037.41
2017-12-23T04:57:55.302Z,1037.41
2017-12-23T04:58:55.067Z,1037.44
2017-12-23T04:59:55.142Z,1037.5
2017-12-23T05:00:55.087Z,1037.52
2017-12-23T05:01:54.866Z,1037.54
2017-12-23T05:02:55.688Z,1037.49
2017-12-23T05:03:55.126Z,1037.5
2017-12-23T05:05:54.684Z,1037.56
2017-12-23T05:06:55.246Z,1037.61
2017-12-23T05:07:54.968Z,1037.56
2017-12-23T05:08:54.919Z,1037.55
2017-12-23T05:09:54.855Z,1037.56
2017-12-23T05:10:54.883Z,1037.58
2017-12-23T05:11:54.884Z,1037.53
2017-12-23T05:12:55.277Z,1037.56
2017-12-23T05:13:54.881Z,1037.51
2017-12-23T05:14:55.696Z,1037.53
2017-12-23T05:15:54.715Z,1037.52
2017-12-23T05:17:55.313Z,1037.51
2017-12-23T05:18:55.129Z,1037.55
2017-12-23T05:19:55.138Z,1037.52
2017-12-23T05:20:55.008Z,1037.53
2017-12-23T05:21:55.277Z,1037.53
2017-12-23T05:22:54.889Z,1037.49
2017-12-23T05:23:54.876Z,1037.47
2017-12-23T05:24:55.082Z,1037.53
2017-12-23T05:25:54.886Z,1037.48
2017-12-23T05:26:55.134Z,1037.48
2017-12-23T05:27:55.388Z,1037.52
2017-12-23T05:28:54.872Z,1037.55
2017-12-23T05:29:54.868Z,1037.55
2017-12-23T05:30:54.959Z,1037.56
2017-12-23T05:31:55.267Z,1037.56
2017-12-23T05:32:54.954Z,1037.52
2017-12-23T05:33:55.128Z,1037.57
2017-12-23T05:34:54.891Z,1037.51
2017-12-23T05:35:54.898Z,1037.49
2017-12-23T05:36:54.852Z,1037.48
2017-12-23T05:37:55.090Z,1037.43
2017-12-23T05:38:54.873Z,1037.47
2017-12-23T05:39:55.077Z,1037.48
2017-12-23T05:40:55.095Z,1037.44
2017-12-23T05:41:54.702Z,1037.43
2017-12-23T05:42:54.900Z,1037.42
2017-12-23T05:43:54.931Z,1037.39
2017-12-23T05:44:55.152Z,1037.4
2017-12-23T05:45:55.061Z,1037.41
2017-12-23T05:46:54.725Z,1037.43
2017-12-23T05:47:55.050Z,1037.42
2017-12-23T05:48:55.129Z,1037.46
2017-12-23T05:49:54.878Z,1037.48
2017-12-23T05:50:54.865Z,1037.44
2017-12-23T05:51:54.879Z,1037.45
2017-12-23T05:52:55.079Z,1037.4
2017-12-23T05:53:55.102Z,1037.38
2017-12-23T05:54:54.866Z,1037.45
2017-12-23T05:55:55.307Z,1037.44
2017-12-23T05:56:55.070Z,1037.43
2017-12-23T05:57:55.087Z,1037.43
2017-12-23T05:58:54.900Z,1037.42
2017-12-23T05:59:54.899Z,1037.4
2017-12-23T06:00:54.737Z,1037.42
2017-12-23T06:01:55.004Z,1037.39
2017-12-23T06:02:54.704Z,1037.37
2017-12-23T06:03:54.637Z,1037.37
2017-12-23T06:04:54.917Z,1037.37
2017-12-23T06:05:55.134Z,1037.37
2017-12-23T06:06:55.111Z,1037.39
2017-12-23T06:07:54.884Z,1037.36
2017-12-23T06:08:55.123Z,1037.34
2017-12-23T06:09:54.958Z,1037.32
2017-12-23T06:10:54.892Z,1037.31
2017-12-23T06:11:55.085Z,1037.28
2017-12-23T06:12:54.895Z,1037.2
2017-12-23T06:13:55.109Z,1037.17
2017-12-23T06:14:54.947Z,1037.17
2017-12-23T06:15:54.940Z,1037.12
2017-12-23T06:16:55.172Z,1037.04
2017-12-23T06:17:54.718Z,1037.02
2017-12-23T06:18:55.039Z,1036.95
2017-12-23T06:19:55.323Z,1036.93
2017-12-23T06:20:55.153Z,1036.94
2017-12-23T06:21:55.058Z,1036.94
2017-12-23T06:22:54.704Z,1036.93
2017-12-23T06:23:54.888Z,1036.9
2017-12-23T06:24:55.074Z,1036.91
2017-12-23T06:25:55.108Z,1036.89
2017-12-23T06:26:55.094Z,1036.86
2017-12-23T06:27:54.919Z,1036.86
2017-12-23T06:28:54.885Z,1036.87
2017-12-23T06:29:54.936Z,1036.81
2017-12-23T06:30:54.954Z,1036.84
2017-12-23T06:31:54.928Z,1036.79
2017-12-23T06:32:54.970Z,1036.8
2017-12-23T06:33:55.097Z,1036.82
2017-12-23T06:34:54.943Z,1036.79
2017-12-23T06:35:54.903Z,1036.79
2017-12-23T06:36:54.881Z,1036.82
2017-12-23T06:37:54.878Z,1036.77
2017-12-23T06:38:55.111Z,1036.77
2017-12-23T06:39:54.748Z,1036.74
2017-12-23T06:40:54.749Z,1036.76
2017-12-23T06:41:55.091Z,1036.68
2017-12-23T06:42:55.088Z,1036.68
2017-12-23T06:43:54.940Z,1036.7
2017-12-23T06:44:54.901Z,1036.69
2017-12-23T06:45:54.936Z,1036.76
2017-12-23T06:46:55.373Z,1036.76
2017-12-23T06:47:55.308Z,1036.8
2017-12-23T06:48:55.110Z,1036.79
2017-12-23T06:49:54.718Z,1036.84
2017-12-23T06:50:55.125Z,1036.81
2017-12-23T06:51:55.134Z,1036.82
2017-12-23T06:52:54.879Z,1036.86
2017-12-23T06:53:54.727Z,1036.79
2017-12-23T06:54:54.729Z,1036.84
2017-12-23T06:55:54.945Z,1036.8
2017-12-23T06:56:54.965Z,1036.83
2017-12-23T06:57:54.948Z,1036.82
2017-12-23T06:58:55.125Z,1036.82
2017-12-23T06:59:55.113Z,1036.85
2017-12-23T07:00:55.353Z,1036.92
2017-12-23T07:01:55.137Z,1036.95
2017-12-23T07:02:54.946Z,1036.93
2017-12-23T07:03:54.967Z,1036.94
2017-12-23T07:04:54.916Z,1036.92
2017-12-23T07:05:54.930Z,1036.99
2017-12-23T07:06:54.731Z,1036.96
2017-12-23T07:07:54.965Z,1036.96
2017-12-23T07:08:54.733Z,1036.94
2017-12-23T07:09:54.910Z,1036.92
2017-12-23T07:10:54.954Z,1036.9
2017-12-23T07:11:55.104Z,1036.9
2017-12-23T07:12:54.988Z,1036.89
2017-12-23T07:13:54.922Z,1036.89
2017-12-23T07:14:54.902Z,1036.86
2017-12-23T07:15:55.152Z,1036.85
2017-12-23T07:16:55.291Z,1036.89
2017-12-23T07:17:54.981Z,1036.95
2017-12-23T07:18:54.917Z,1036.98
2017-12-23T07:19:54.965Z,1036.97
2017-12-23T07:20:55.115Z,1036.99
2017-12-23T07:21:55.144Z,1037.01
2017-12-23T07:22:55.069Z,1036.99
2017-12-23T07:23:55.138Z,1037.01
2017-12-23T07:24:55.139Z,1037.01
2017-12-23T07:25:54.946Z,1037.01
2017-12-23T07:26:55.074Z,1037.05
2017-12-23T07:27:54.947Z,1037.1
2017-12-23T07:28:54.973Z,1037.1
2017-12-23T07:29:55.127Z,1037.13
2017-12-23T07:30:55.163Z,1037.18
2017-12-23T07:31:54.771Z,1037.14
2017-12-23T07:32:55.296Z,1037.22
2017-12-23T07:33:55.170Z,1037.26
2017-12-23T07:34:55.334Z,1037.24
2017-12-23T07:35:54.931Z,1037.23
2017-12-23T07:36:54.937Z,1037.22
2017-12-23T07:37:54.946Z,1037.24
2017-12-23T07:38:55.107Z,1037.23
2017-12-23T07:39:55.146Z,1037.22
2017-12-23T07:40:54.940Z,1037.22
2017-12-23T07:41:54.920Z,1037.17
2017-12-23T07:42:54.787Z,1037.24
2017-12-23T07:43:55.136Z,1037.23
2017-12-23T07:44:54.943Z,1037.23
2017-12-23T07:45:54.914Z,1037.27
2017-12-23T07:46:55.138Z,1037.24
2017-12-23T07:47:54.941Z,1037.29
2017-12-23T07:48:54.996Z,1037.25
2017-12-23T07:49:55.372Z,1037.26
2017-12-23T07:50:54.945Z,1037.29
2017-12-23T07:51:55.172Z,1037.31
2017-12-23T07:52:54.936Z,1037.32
2017-12-23T07:53:55.224Z,1037.34
2017-12-23T07:54:55.306Z,1037.33
2017-12-23T07:55:54.958Z,1037.35
2017-12-23T07:56:54.980Z,1037.33
2017-12-23T07:57:55.448Z,1037.37
2017-12-23T07:58:55.144Z,1037.36
2017-12-23T07:59:54.744Z,1037.34
2017-12-23T08:00:55.431Z,1037.35
2017-12-23T08:01:54.944Z,1037.36
2017-12-23T08:02:54.950Z,1037.4
2017-12-23T08:03:55.121Z,1037.36
2017-12-23T08:04:55.209Z,1037.36
2017-12-23T08:05:55.166Z,1037.34
2017-12-23T08:06:54.937Z,1037.34
2017-12-23T08:07:55.356Z,1037.37
2017-12-23T08:08:54.963Z,1037.4
2017-12-23T08:09:55.109Z,1037.39
2017-12-23T08:10:55.104Z,1037.42
2017-12-23T08:11:54.943Z,1037.38
2017-12-23T08:12:54.975Z,1037.38
2017-12-23T08:13:55.278Z,1037.39
2017-12-23T08:14:54.778Z,1037.41
2017-12-23T08:15:54.995Z,1037.38
2017-12-23T08:16:55.199Z,1037.42
2017-12-23T08:17:54.943Z,1037.43
2017-12-23T08:18:54.804Z,1037.42
2017-12-23T08:19:55.447Z,1037.42
2017-12-23T08:20:55.158Z,1037.44
2017-12-23T08:21:55.186Z,1037.45
2017-12-23T08:22:55.180Z,1037.46
2017-12-23T08:23:54.761Z,1037.46
2017-12-23T08:24:55.382Z,1037.49
2017-12-23T08:25:55.192Z,1037.53
2017-12-23T08:26:55.021Z,1037.5
2017-12-23T08:27:54.966Z,1037.51
2017-12-23T08:28:54.963Z,1037.51
2017-12-23T08:29:54.975Z,1037.52
2017-12-23T08:30:54.795Z,1037.52
2017-12-23T08:31:55.310Z,1037.53
2017-12-23T08:32:55.227Z,1037.54
2017-12-23T08:33:55.029Z,1037.54
2017-12-23T08:34:55.183Z,1037.47
2017-12-23T08:35:55.055Z,1037.51
2017-12-23T08:36:54.781Z,1037.52
2017-12-23T08:37:55.389Z,1037.54
2017-12-23T08:38:55.325Z,1037.52
2017-12-23T08:39:55.126Z,1037.53
2017-12-23T08:40:55.029Z,1037.55
2017-12-23T08:41:55.010Z,1037.53
2017-12-23T08:42:55.006Z,1037.55
2017-12-23T08:43:54.787Z,1037.59
2017-12-23T08:44:55.014Z,1037.56
2017-12-23T08:45:55.036Z,1037.54
2017-12-23T08:46:54.960Z,1037.57
2017-12-23T08:47:57.378Z,1037.6
2017-12-23T08:49:55.256Z,1037.57
2017-12-23T08:50:54.764Z,1037.5
2017-12-23T08:51:54.962Z,1037.55
2017-12-23T08:52:54.967Z,1037.58
2017-12-23T08:53:55.243Z,1037.52
2017-12-23T08:54:55.068Z,1037.52
2017-12-23T08:55:55.200Z,1037.55
2017-12-23T08:56:55.050Z,1037.51
2017-12-23T08:57:54.775Z,1037.52
2017-12-23T08:58:54.824Z,1037.57
2017-12-23T08:59:55.166Z,1037.59
2017-12-23T09:00:54.791Z,1037.58
2017-12-23T09:01:55.182Z,1037.57
2017-12-23T09:02:54.813Z,1037.48
2017-12-23T09:03:54.997Z,1037.52
2017-12-23T09:04:55.467Z,1037.53
2017-12-23T09:05:55.219Z,1037.55
2017-12-23T09:06:54.873Z,1037.51
2017-12-23T09:07:55.182Z,1037.54
2017-12-23T09:08:54.830Z,1037.54
2017-12-23T09:09:54.970Z,1037.54
2017-12-23T09:10:54.769Z,1037.57
2017-12-23T09:11:55.216Z,1037.56
2017-12-23T09:12:55.155Z,1037.63
2017-12-23T09:13:55.008Z,1037.55
2017-12-23T09:14:55.044Z,1037.6
2017-12-23T09:15:55.350Z,1037.58
2017-12-23T09:16:54.989Z,1037.59
2017-12-23T09:17:54.810Z,1037.66
2017-12-23T09:18:55.190Z,1037.62
2017-12-23T09:19:55.028Z,1037.66
2017-12-23T09:20:54.989Z,1037.63
2017-12-23T09:21:55.416Z,1037.58
2017-12-23T09:22:55.165Z,1037.59
2017-12-23T09:23:54.996Z,1037.64
2017-12-23T09:24:55.389Z,1037.63
2017-12-23T09:25:55.199Z,1037.64
2017-12-23T09:26:54.994Z,1037.66
2017-12-23T09:27:55.013Z,1037.69
2017-12-23T09:28:55.002Z,1037.7
2017-12-23T09:29:55.360Z,1037.75
2017-12-23T09:30:55.018Z,1037.72
2017-12-23T09:31:55.210Z,1037.69
2017-12-23T09:32:55.153Z,1037.7
2017-12-23T09:33:54.996Z,1037.69
2017-12-23T09:34:55.174Z,1037.71
2017-12-23T09:35:55.033Z,1037.72
2017-12-23T09:36:55.189Z,1037.69
2017-12-23T09:37:55.075Z,1037.7
2017-12-23T09:38:54.992Z,1037.74
2017-12-23T09:39:55.030Z,1037.66
2017-12-23T09:40:55.219Z,1037.73
2017-12-23T09:41:55.013Z,1037.75
2017-12-23T09:42:55.021Z,1037.74
2017-12-23T09:43:54.805Z,1037.73
2017-12-23T09:44:55.251Z,1037.76
2017-12-23T09:45:54.810Z,1037.75
2017-12-23T09:46:55.194Z,1037.71
2017-12-23T09:47:55.406Z,1037.68
2017-12-23T09:48:55.478Z,1037.66
2017-12-23T09:49:54.814Z,1037.66
2017-12-23T09:50:55.003Z,1037.64
2017-12-23T09:51:55.208Z,1037.65
2017-12-23T09:52:54.982Z,1037.68
2017-12-23T09:53:55.057Z,1037.62
2017-12-23T09:54:55.175Z,1037.68
2017-12-23T09:55:54.858Z,1037.65
2017-12-23T09:56:55.209Z,1037.62
2017-12-23T09:57:55.068Z,1037.59
2017-12-23T09:58:54.992Z,1037.62
2017-12-23T09:59:54.813Z,1037.6
2017-12-23T10:00:54.807Z,1037.58
2017-12-23T10:01:55.291Z,1037.66
2017-12-23T10:02:55.204Z,1037.64
2017-12-23T10:03:55.010Z,1037.65
2017-12-23T10:04:55.234Z,1037.64
2017-12-23T10:05:55.212Z,1037.59
2017-12-23T10:06:55.027Z,1037.61
2017-12-23T10:07:54.856Z,1037.61
2017-12-23T10:08:54.963Z,1037.56
2017-12-23T10:09:55.225Z,1037.57
2017-12-23T10:10:55.550Z,1037.58
2017-12-23T10:11:55.047Z,1037.57
2017-12-23T10:12:55.236Z,1037.56
2017-12-23T10:13:55.401Z,1037.53
2017-12-23T10:14:55.068Z,1037.5
2017-12-23T10:15:55.519Z,1037.51
2017-12-23T10:16:55.407Z,1037.55
2017-12-23T10:17:55.110Z,1037.51
2017-12-23T10:18:55.443Z,1037.56
2017-12-23T10:19:54.885Z,1037.52
2017-12-23T10:20:55.025Z,1037.55
2017-12-23T10:21:55.024Z,1037.58
2017-12-23T10:22:55.174Z,1037.56
2017-12-23T10:23:55.060Z,1037.6
2017-12-23T10:24:55.207Z,1037.62
2017-12-23T10:25:55.708Z,1037.62
2017-12-23T10:26:26.386Z,1037.66
2017-12-23T10:27:26.210Z,1037.63
2017-12-23T10:28:26.636Z,1037.64
2017-12-23T10:29:26.637Z,1037.61
2017-12-23T10:30:26.238Z,1037.59
2017-12-23T10:31:26.439Z,1037.54
2017-12-23T10:32:26.416Z,1037.54
2017-12-23T10:33:26.867Z,1037.52
2017-12-23T10:34:26.736Z,1037.54
2017-12-23T10:35:26.485Z,1037.46
2017-12-23T10:36:26.203Z,1037.51
2017-12-23T10:37:26.375Z,1037.49
2017-12-23T10:38:26.408Z,1037.5
2017-12-23T10:39:26.484Z,1037.53
2017-12-23T10:40:26.693Z,1037.47
2017-12-23T10:41:26.232Z,1037.48
2017-12-23T10:42:26.625Z,1037.48
2017-12-23T10:43:26.616Z,1037.46
2017-12-23T10:44:26.623Z,1037.49
2017-12-23T10:45:26.231Z,1037.5
2017-12-23T10:46:26.676Z,1037.5
2017-12-23T10:47:26.788Z,1037.5
2017-12-23T10:48:26.451Z,1037.52
2017-12-23T10:49:26.770Z,1037.46
2017-12-23T10:50:26.642Z,1037.51
2017-12-23T10:51:26.631Z,1037.5
2017-12-23T10:52:26.675Z,1037.51
2017-12-23T10:53:26.637Z,1037.5
2017-12-23T10:54:26.446Z,1037.5
2017-12-23T10:55:26.639Z,1037.47
2017-12-23T10:56:26.724Z,1037.46
2017-12-23T10:57:26.186Z,1037.48
2017-12-23T10:58:26.468Z,1037.44
2017-12-23T10:59:26.536Z,1037.42
2017-12-23T11:00:26.424Z,1037.42
2017-12-23T11:01:26.639Z,1037.36
2017-12-23T11:02:26.486Z,1037.39
2017-12-23T11:03:26.442Z,1037.35
2017-12-23T11:04:26.430Z,1037.41
2017-12-23T11:05:26.603Z,1037.39
2017-12-23T11:06:26.715Z,1037.4
2017-12-23T11:07:26.632Z,1037.39
2017-12-23T11:08:26.620Z,1037.37
2017-12-23T11:09:26.465Z,1037.35
2017-12-23T11:10:26.469Z,1037.31
2017-12-23T11:11:26.509Z,1037.32
2017-12-23T11:12:26.279Z,1037.36
2017-12-23T11:13:26.522Z,1037.32
2017-12-23T11:14:26.651Z,1037.34
2017-12-23T11:15:26.648Z,1037.3
2017-12-23T11:16:26.797Z,1037.32
2017-12-23T11:17:26.829Z,1037.32
2017-12-23T11:18:26.661Z,1037.27
2017-12-23T11:19:26.709Z,1037.25
2017-12-23T11:20:26.613Z,1037.25
2017-12-23T11:21:26.598Z,1037.18
2017-12-23T11:22:26.677Z,1037.24
2017-12-23T11:23:26.452Z,1037.2
2017-12-23T11:24:26.600Z,1037.21
2017-12-23T11:25:26.450Z,1037.22
2017-12-23T11:26:26.838Z,1037.17
2017-12-23T11:27:26.360Z,1037.18
2017-12-23T11:28:26.466Z,1037.16
2017-12-23T11:29:26.417Z,1037.22
2017-12-23T11:30:26.807Z,1037.19
2017-12-23T11:31:26.818Z,1037.19
2017-12-23T11:32:26.452Z,1037.16
2017-12-23T11:33:26.253Z,1037.2
2017-12-23T11:34:26.688Z,1037.12
2017-12-23T11:35:26.450Z,1037.13
2017-12-23T11:36:26.618Z,1037.14
2017-12-23T11:37:26.627Z,1037.12
2017-12-23T11:38:26.818Z,1037.09
2017-12-23T11:39:26.333Z,1037.07
2017-12-23T11:40:26.852Z,1037.07
2017-12-23T11:41:27.006Z,1037
2017-12-23T11:42:26.682Z,1037.02
2017-12-23T11:43:26.818Z,1037.01
2017-12-23T11:44:26.440Z,1037.01
2017-12-23T11:45:26.855Z,1036.97
2017-12-23T11:46:26.492Z,1036.97
2017-12-23T11:47:26.641Z,1037.02
2017-12-23T11:48:26.630Z,1036.95
2017-12-23T11:49:26.270Z,1036.91
2017-12-23T11:50:27.188Z,1036.88
2017-12-23T11:51:26.489Z,1036.87
2017-12-23T11:52:26.707Z,1036.87
2017-12-23T11:53:26.514Z,1036.84
2017-12-23T11:54:26.263Z,1036.82
2017-12-23T11:55:26.703Z,1036.78
2017-12-23T11:56:26.670Z,1036.72
2017-12-23T11:57:26.467Z,1036.81
2017-12-23T11:58:26.706Z,1036.8
2017-12-23T11:59:26.433Z,1036.8
2017-12-23T12:00:26.662Z,1036.8
2017-12-23T12:01:26.854Z,1036.83
2017-12-23T12:02:26.605Z,1036.82
2017-12-23T12:03:26.488Z,1036.81
2017-12-23T12:04:26.639Z,1036.85
2017-12-23T12:05:26.484Z,1036.83
2017-12-23T12:06:26.670Z,1036.81
2017-12-23T12:07:26.456Z,1036.8
2017-12-23T12:08:26.636Z,1036.83
2017-12-23T12:09:26.832Z,1036.73
2017-12-23T12:10:26.641Z,1036.84
2017-12-23T12:11:26.300Z,1036.81
2017-12-23T12:12:26.929Z,1036.81
2017-12-23T12:13:26.900Z,1036.8
2017-12-23T12:14:26.462Z,1036.83
2017-12-23T12:15:26.544Z,1036.79
2017-12-23T12:16:26.820Z,1036.83
2017-12-23T12:17:26.844Z,1036.83
2017-12-23T12:18:26.300Z,1036.87
2017-12-23T12:19:26.741Z,1036.84
2017-12-23T12:20:26.734Z,1036.84
2017-12-23T12:21:26.733Z,1036.8
2017-12-23T12:22:26.737Z,1036.84
2017-12-23T12:23:26.677Z,1036.83
2017-12-23T12:24:26.899Z,1036.82
2017-12-23T12:25:26.965Z,1036.84
2017-12-23T12:26:26.720Z,1036.83
2017-12-23T12:27:26.551Z,1036.86
2017-12-23T12:28:26.793Z,1036.84
2017-12-23T12:29:26.973Z,1036.84
2017-12-23T12:30:26.529Z,1036.82
2017-12-23T12:31:26.427Z,1036.86
2017-12-23T12:32:26.863Z,1036.8
2017-12-23T12:33:26.818Z,1036.83
2017-12-23T12:34:26.672Z,1036.78
2017-12-23T12:35:26.518Z,1036.81
2017-12-23T12:36:26.482Z,1036.82
2017-12-23T12:37:26.750Z,1036.81
2017-12-23T12:38:26.559Z,1036.8
2017-12-23T12:39:26.686Z,1036.79
2017-12-23T12:40:26.973Z,1036.82
2017-12-23T12:41:26.480Z,1036.78
2017-12-23T12:42:26.687Z,1036.79
2017-12-23T12:43:26.327Z,1036.78
2017-12-23T12:44:26.643Z,1036.77
2017-12-23T12:45:26.586Z,1036.76
2017-12-23T12:46:26.872Z,1036.75
2017-12-23T12:47:26.276Z,1036.73
2017-12-23T12:48:26.707Z,1036.71
2017-12-23T12:49:26.877Z,1036.72
2017-12-23T12:50:26.689Z,1036.71
2017-12-23T12:51:26.471Z,1036.74
2017-12-23T12:52:26.641Z,1036.7
2017-12-23T12:53:26.652Z,1036.71
2017-12-23T12:54:26.626Z,1036.69
2017-12-23T12:55:26.487Z,1036.69
2017-12-23T12:56:26.475Z,1036.7
2017-12-23T12:57:26.633Z,1036.7
2017-12-23T12:58:26.778Z,1036.67
2017-12-23T12:59:26.753Z,1036.7
2017-12-23T13:00:26.965Z,1036.71
2017-12-23T13:01:26.540Z,1036.67
2017-12-23T13:02:26.449Z,1036.67
2017-12-23T13:03:26.472Z,1036.72